Time;durP1;ratioP1;P1;durP2;ratioP2;P2;SDS_P1;SDS_P2;PMS_P1;PMS_P2;Temp;Humidity;BMP_temperature;BMP_pressure;BME280_temperature;BME280_humidity;BME280_pressure;Samples;Min_cycle;Max_cycle;Signal;HPM_P1;HPM_P2
2022/04/24 00:00:05;;;;;;;32.53;13.65;;;12.50;99.90;;;;;;5113748;28;20023;-87
2022/04/24 00:02:31;;;;;;;31.75;12.93;;;12.50;99.90;;;;;;5113070;28;20107;-85
2022/04/24 00:04:57;;;;;;;34.47;13.32;;;12.40;99.90;;;;;;5109631;28;20107;-86
2022/04/24 00:07:23;;;;;;;25.17;12.57;;;12.40;99.90;;;;;;5112963;28;20020;-85
2022/04/24 00:09:48;;;;;;;32.05;14.20;;;12.40;99.90;;;;;;5112387;28;20031;-85
2022/04/24 00:12:15;;;;;;;25.50;12.35;;;12.50;99.90;;;;;;5113669;28;20020;-85
2022/04/24 00:14:45;;;;;;;29.65;13.13;;;12.40;99.90;;;;;;5107408;22;20036;-83
2022/04/24 00:17:12;;;;;;;29.52;12.50;;;12.40;99.90;;;;;;5092012;28;20097;-83
2022/04/24 00:19:38;;;;;;;37.78;13.23;;;12.40;99.90;;;;;;5091798;28;20024;-83
2022/04/24 00:22:04;;;;;;;32.13;13.20;;;12.40;99.90;;;;;;5092668;28;20077;-84
2022/04/24 00:24:32;;;;;;;32.00;12.38;;;12.30;99.90;;;;;;5094158;28;20027;-83
2022/04/24 00:26:58;;;;;;;33.97;12.70;;;12.30;99.90;;;;;;5100699;28;20061;-84
2022/04/24 00:29:24;;;;;;;27.48;13.32;;;12.30;99.90;;;;;;5098822;28;20016;-84
2022/04/24 00:31:50;;;;;;;27.88;12.52;;;12.30;99.90;;;;;;5100330;28;20499;-83
2022/04/24 00:34:16;;;;;;;30.35;14.40;;;12.30;99.90;;;;;;5098372;28;20396;-84
2022/04/24 00:36:43;;;;;;;25.70;12.23;;;12.30;99.90;;;;;;5097489;28;20028;-83
2022/04/24 00:39:09;;;;;;;26.70;12.70;;;12.40;99.90;;;;;;5098480;28;20035;-84
2022/04/24 00:41:43;;;;;;;28.80;12.85;;;12.30;99.90;;;;;;5097205;28;20592;-83
2022/04/24 00:44:08;;;;;;;27.88;11.65;;;12.30;99.90;;;;;;5092723;28;20107;-84
2022/04/24 00:46:41;;;;;;;29.77;12.43;;;12.20;99.90;;;;;;5099850;28;20102;-84
2022/04/24 00:49:09;;;;;;;30.63;12.85;;;12.20;99.90;;;;;;5099609;28;20161;-84
2022/04/24 00:51:37;;;;;;;24.85;11.80;;;12.10;99.90;;;;;;5098698;28;20029;-84
2022/04/24 00:54:06;;;;;;;26.20;10.98;;;12.10;99.90;;;;;;5101242;28;20020;-85
2022/04/24 00:56:32;;;;;;;22.83;12.15;;;11.90;99.90;;;;;;5099888;28;20043;-83
2022/04/24 00:59:04;;;;;;;29.33;12.70;;;11.80;99.90;;;;;;5098059;28;20032;-83
2022/04/24 01:01:31;;;;;;;30.35;11.57;;;11.70;99.90;;;;;;5096768;28;20019;-83
2022/04/24 01:04:00;;;;;;;28.85;13.75;;;11.60;99.90;;;;;;5106090;28;20027;-84
2022/04/24 01:06:27;;;;;;;34.42;12.10;;;11.50;99.90;;;;;;5102984;28;20091;-83
2022/04/24 01:08:53;;;;;;;26.63;11.95;;;11.40;99.90;;;;;;5092186;28;20066;-84
2022/04/24 01:11:19;;;;;;;28.05;13.02;;;11.40;99.90;;;;;;5098561;28;20034;-84
2022/04/24 01:13:45;;;;;;;35.08;13.73;;;11.30;99.90;;;;;;5125206;22;20135;-84
2022/04/24 01:16:11;;;;;;;33.15;13.07;;;11.20;99.90;;;;;;5098379;28;20032;-85
2022/04/24 01:18:38;;;;;;;31.08;12.70;;;11.20;99.90;;;;;;5101632;28;20069;-85
2022/04/24 01:21:08;;;;;;;34.15;12.88;;;11.10;99.90;;;;;;5095312;28;20108;-85
2022/04/24 01:23:34;;;;;;;30.65;12.95;;;11.00;99.90;;;;;;5094332;28;20032;-85
2022/04/24 01:26:00;;;;;;;30.98;11.60;;;11.00;99.90;;;;;;5083036;28;20082;-85
2022/04/24 01:28:25;;;;;;;37.22;13.82;;;11.00;99.90;;;;;;5087521;28;20540;-85
2022/04/24 01:30:51;;;;;;;30.70;12.02;;;11.00;99.90;;;;;;5075257;28;20051;-85
2022/04/24 01:33:17;;;;;;;37.58;13.48;;;11.00;99.90;;;;;;5076329;28;20038;-86
2022/04/24 01:35:42;;;;;;;31.00;12.95;;;11.00;99.90;;;;;;5075185;28;20032;-85
2022/04/24 01:38:08;;;;;;;23.27;12.68;;;10.90;99.90;;;;;;5075076;28;20447;-86
2022/04/24 01:40:34;;;;;;;28.30;14.07;;;10.80;99.90;;;;;;5078968;28;20067;-85
2022/04/24 01:42:59;;;;;;;30.15;12.98;;;10.80;99.90;;;;;;5075116;28;20014;-86
2022/04/24 01:45:25;;;;;;;34.00;12.60;;;10.70;99.90;;;;;;5078126;28;20461;-86
2022/04/24 01:47:51;;;;;;;32.88;13.45;;;10.70;99.90;;;;;;5083534;28;20024;-86
2022/04/24 01:50:16;;;;;;;29.85;13.52;;;10.70;99.90;;;;;;5089025;28;20404;-86
2022/04/24 01:52:42;;;;;;;33.97;13.70;;;10.70;99.90;;;;;;5089249;28;20024;-86
2022/04/24 01:55:08;;;;;;;31.05;13.55;;;10.60;99.90;;;;;;5089487;28;20016;-85
2022/04/24 01:57:33;;;;;;;29.20;13.48;;;10.70;99.90;;;;;;5090216;28;20063;-85
2022/04/24 01:59:59;;;;;;;35.10;14.23;;;10.60;99.90;;;;;;5089942;28;20426;-85
2022/04/24 02:02:25;;;;;;;32.38;13.02;;;10.60;99.90;;;;;;5085931;28;20050;-85
2022/04/24 02:04:50;;;;;;;34.67;13.93;;;10.50;99.90;;;;;;5087784;28;20021;-85
2022/04/24 02:07:16;;;;;;;35.38;12.93;;;10.50;99.90;;;;;;5090093;28;20024;-86
2022/04/24 02:09:42;;;;;;;32.05;12.52;;;10.40;99.90;;;;;;5089306;28;20024;-85
2022/04/24 02:12:08;;;;;;;38.70;12.98;;;10.40;99.90;;;;;;5087589;28;20020;-85
2022/04/24 02:14:34;;;;;;;32.08;13.40;;;10.40;99.90;;;;;;5109845;22;20054;-83
2022/04/24 02:16:59;;;;;;;30.67;13.55;;;10.40;99.90;;;;;;5110751;28;20028;-83
2022/04/24 02:19:25;;;;;;;30.38;12.50;;;10.40;99.90;;;;;;5110554;28;20713;-83
2022/04/24 02:21:51;;;;;;;25.90;11.88;;;10.30;99.90;;;;;;5107495;28;20051;-84
2022/04/24 02:24:17;;;;;;;30.60;13.50;;;10.20;99.90;;;;;;5102960;28;20020;-83
2022/04/24 02:26:43;;;;;;;35.53;13.25;;;10.30;99.90;;;;;;5099700;28;20027;-83
2022/04/24 02:29:08;;;;;;;35.45;14.75;;;10.20;99.90;;;;;;5097938;28;20029;-83
2022/04/24 02:31:35;;;;;;;32.72;13.35;;;10.10;99.90;;;;;;5103055;27;20027;-84
2022/04/24 02:34:01;;;;;;;32.63;14.80;;;10.00;99.90;;;;;;5099649;28;20055;-84
2022/04/24 02:36:26;;;;;;;27.60;12.23;;;10.00;99.90;;;;;;5098365;28;20056;-83
2022/04/24 02:38:52;;;;;;;26.38;12.82;;;10.00;99.90;;;;;;5101874;28;20020;-84
2022/04/24 02:41:18;;;;;;;25.35;11.82;;;10.00;99.90;;;;;;5099108;28;20023;-83
2022/04/24 02:43:44;;;;;;;29.67;12.02;;;9.90;99.90;;;;;;5098374;28;20433;-84
2022/04/24 02:46:09;;;;;;;27.27;12.98;;;9.80;99.90;;;;;;5103356;28;20550;-84
2022/04/24 02:48:35;;;;;;;26.58;12.57;;;9.80;99.90;;;;;;5099057;28;20023;-84
2022/04/24 02:51:03;;;;;;;25.55;12.80;;;9.70;99.90;;;;;;5097538;28;20488;-84
2022/04/24 02:53:29;;;;;;;27.90;12.73;;;9.70;99.90;;;;;;5103005;28;20015;-84
2022/04/24 02:55:54;;;;;;;27.45;11.82;;;9.70;99.90;;;;;;5098643;28;20047;-84
2022/04/24 02:58:21;;;;;;;26.80;12.48;;;9.70;99.90;;;;;;5099171;28;20063;-84
2022/04/24 03:00:50;;;;;;;28.80;12.07;;;9.70;99.90;;;;;;5101986;28;20421;-83
2022/04/24 03:03:19;;;;;;;30.00;12.65;;;9.60;99.90;;;;;;5097969;28;20380;-83
2022/04/24 03:05:49;;;;;;;28.75;12.70;;;9.70;99.90;;;;;;5100790;28;20031;-84
2022/04/24 03:08:19;;;;;;;24.27;11.68;;;9.60;99.90;;;;;;5100481;28;20020;-84
2022/04/24 03:10:45;;;;;;;22.80;11.80;;;9.50;99.90;;;;;;5097869;28;20020;-83
2022/04/24 03:13:11;;;;;;;29.52;12.75;;;9.60;99.90;;;;;;5119087;22;20046;-84
2022/04/24 03:15:37;;;;;;;25.35;11.38;;;9.60;99.90;;;;;;5097862;28;20031;-84
2022/04/24 03:18:04;;;;;;;25.48;11.05;;;9.50;99.90;;;;;;5097451;28;20043;-84
2022/04/24 03:20:30;;;;;;;26.95;11.60;;;9.40;99.90;;;;;;5095418;28;20457;-84
2022/04/24 03:22:56;;;;;;;23.55;10.45;;;9.40;99.90;;;;;;5093390;28;20048;-85
2022/04/24 03:25:22;;;;;;;24.40;11.05;;;9.40;99.90;;;;;;5089791;28;20046;-84
2022/04/24 03:27:48;;;;;;;31.40;11.00;;;9.40;99.90;;;;;;5088295;28;20043;-84
2022/04/24 03:30:15;;;;;;;28.00;11.02;;;9.40;99.90;;;;;;5087956;28;20105;-85
2022/04/24 03:32:41;;;;;;;33.15;11.82;;;9.40;99.90;;;;;;5089473;28;20439;-85
2022/04/24 03:35:09;;;;;;;26.52;10.73;;;9.30;99.90;;;;;;5090085;28;20020;-86
2022/04/24 03:37:35;;;;;;;24.42;11.90;;;9.20;99.90;;;;;;5087800;28;20185;-85
2022/04/24 03:40:02;;;;;;;28.70;11.48;;;9.20;99.90;;;;;;5089032;28;20074;-85
2022/04/24 03:42:28;;;;;;;28.13;12.13;;;9.30;99.90;;;;;;5088319;28;20031;-85
2022/04/24 03:44:57;;;;;;;30.05;11.15;;;9.20;99.90;;;;;;5088620;28;20016;-85
2022/04/24 03:47:23;;;;;;;32.97;11.32;;;9.10;99.90;;;;;;5089037;28;20442;-86
2022/04/24 03:49:49;;;;;;;21.98;9.63;;;9.10;99.90;;;;;;5088383;28;20020;-86
2022/04/24 03:52:15;;;;;;;31.50;11.18;;;9.00;99.90;;;;;;5087956;28;20020;-86
2022/04/24 03:54:41;;;;;;;21.33;10.57;;;9.00;99.90;;;;;;5087610;28;20031;-86
2022/04/24 03:57:07;;;;;;;29.77;10.80;;;9.00;99.90;;;;;;5089269;28;20028;-86
2022/04/24 03:59:33;;;;;;;29.52;12.38;;;9.00;99.90;;;;;;5088137;28;20024;-84
2022/04/24 04:01:59;;;;;;;27.42;10.68;;;8.90;99.90;;;;;;5091834;28;20035;-86
2022/04/24 04:04:25;;;;;;;31.65;10.90;;;8.90;99.90;;;;;;5091879;28;20016;-86
2022/04/24 04:06:51;;;;;;;25.85;11.00;;;8.90;99.90;;;;;;5092741;28;20031;-85
2022/04/24 04:09:17;;;;;;;27.42;10.60;;;8.90;99.90;;;;;;5092544;28;20111;-85
2022/04/24 04:11:42;;;;;;;25.67;11.07;;;8.90;99.90;;;;;;5092821;28;20028;-85
2022/04/24 04:14:08;;;;;;;30.25;11.98;;;8.80;99.90;;;;;;5118260;22;20605;-82
2022/04/24 04:16:34;;;;;;;33.13;11.70;;;8.80;99.90;;;;;;5100565;28;20040;-82
2022/04/24 04:19:00;;;;;;;30.55;11.50;;;8.80;99.90;;;;;;5100350;28;20016;-82
2022/04/24 04:21:26;;;;;;;30.05;10.60;;;8.70;99.90;;;;;;5100490;28;20051;-82
2022/04/24 04:23:52;;;;;;;32.15;12.07;;;8.70;99.90;;;;;;5093572;28;20586;-82
2022/04/24 04:26:18;;;;;;;27.83;11.52;;;8.80;99.90;;;;;;5091950;28;20556;-82
2022/04/24 04:28:44;;;;;;;23.58;11.35;;;8.70;99.90;;;;;;5092157;28;20028;-82
2022/04/24 04:31:12;;;;;;;27.13;12.35;;;8.70;99.90;;;;;;5092229;28;20078;-82
2022/04/24 04:33:37;;;;;;;31.98;13.05;;;8.70;99.90;;;;;;5091923;28;20035;-82
2022/04/24 04:36:03;;;;;;;24.65;11.85;;;8.60;99.90;;;;;;5092398;28;20024;-82
2022/04/24 04:38:29;;;;;;;27.65;12.25;;;8.60;99.90;;;;;;5087994;28;20031;-82
2022/04/24 04:40:55;;;;;;;28.77;11.75;;;8.60;99.90;;;;;;5086859;28;20488;-82
2022/04/24 04:43:20;;;;;;;34.03;12.05;;;8.70;99.90;;;;;;5091457;28;20024;-82
2022/04/24 04:45:47;;;;;;;30.85;12.48;;;8.70;99.90;;;;;;5091402;28;20393;-82
2022/04/24 04:48:13;;;;;;;33.78;11.90;;;8.70;99.90;;;;;;5090643;28;20060;-83
2022/04/24 04:50:39;;;;;;;35.50;14.10;;;8.70;99.90;;;;;;5092081;28;20016;-83
2022/04/24 04:53:04;;;;;;;28.52;12.98;;;8.60;99.90;;;;;;5091429;28;20024;-83
2022/04/24 04:55:31;;;;;;;24.77;12.23;;;8.60;99.90;;;;;;5090552;28;20472;-82
2022/04/24 04:57:58;;;;;;;27.85;12.45;;;8.60;99.90;;;;;;5091668;28;20389;-82
2022/04/24 05:00:24;;;;;;;25.45;12.18;;;8.60;99.90;;;;;;5091248;28;20012;-82
2022/04/24 05:02:50;;;;;;;42.15;13.38;;;8.60;99.90;;;;;;5091262;28;20028;-82
2022/04/24 05:05:16;;;;;;;32.47;12.57;;;8.60;99.90;;;;;;5091833;28;20028;-82
2022/04/24 05:07:42;;;;;;;31.15;12.60;;;8.60;99.90;;;;;;5091471;28;20085;-82
2022/04/24 05:10:08;;;;;;;31.00;12.50;;;8.60;99.90;;;;;;5091127;28;20028;-82
2022/04/24 05:12:35;;;;;;;32.47;12.77;;;8.60;99.90;;;;;;5091301;28;20028;-82
2022/04/24 05:15:01;;;;;;;30.88;12.60;;;8.70;99.90;;;;;;5090950;28;20059;-81
2022/04/24 05:17:27;;;;;;;33.20;13.80;;;8.70;99.90;;;;;;5089582;28;20085;-82
2022/04/24 05:19:54;;;;;;;34.78;12.65;;;8.80;99.90;;;;;;5090417;28;20078;-82
2022/04/24 05:22:19;;;;;;;29.98;13.55;;;8.80;99.90;;;;;;5091248;28;20024;-82
2022/04/24 05:24:45;;;;;;;27.90;12.77;;;8.80;99.90;;;;;;5090882;28;20111;-82
2022/04/24 05:27:11;;;;;;;33.17;13.23;;;8.90;99.90;;;;;;5090940;28;20024;-82
2022/04/24 05:29:36;;;;;;;29.30;12.38;;;8.90;99.90;;;;;;5090272;28;20399;-82
2022/04/24 05:32:03;;;;;;;29.65;13.85;;;9.00;99.90;;;;;;5090719;28;20504;-82
2022/04/24 05:34:28;;;;;;;26.88;11.95;;;9.00;99.90;;;;;;5090158;28;20027;-81
2022/04/24 05:36:54;;;;;;;37.22;13.77;;;9.10;99.90;;;;;;5091036;28;20040;-82
2022/04/24 05:39:20;;;;;;;31.80;13.18;;;9.30;99.90;;;;;;5090286;28;20016;-82
2022/04/24 05:41:45;;;;;;;32.03;14.07;;;9.30;99.90;;;;;;5088933;28;20032;-82
2022/04/24 05:44:11;;;;;;;33.90;13.20;;;9.30;99.90;;;;;;5114185;22;20036;-84
2022/04/24 05:46:37;;;;;;;30.52;12.57;;;9.30;99.90;;;;;;5076397;28;20024;-86
2022/04/24 05:49:03;;;;;;;28.38;13.50;;;9.40;99.90;;;;;;5076125;28;20028;-86
2022/04/24 05:51:29;;;;;;;32.92;14.02;;;9.40;99.90;;;;;;5066070;28;20058;-85
2022/04/24 05:53:54;;;;;;;31.75;12.48;;;9.60;99.90;;;;;;5073919;28;20016;-84
2022/04/24 05:56:21;;;;;;;29.92;13.13;;;9.60;99.90;;;;;;5070296;28;20036;-83
2022/04/24 05:58:46;;;;;;;26.30;12.80;;;9.60;99.90;;;;;;5069418;28;20024;-82
2022/04/24 06:01:13;;;;;;;32.75;13.68;;;9.60;99.90;;;;;;5069973;28;20366;-85
2022/04/24 06:03:41;;;;;;;34.42;13.73;;;9.70;99.90;;;;;;5069743;28;20029;-85
2022/04/24 06:06:07;;;;;;;26.17;12.32;;;9.80;99.90;;;;;;5070467;28;20059;-85
2022/04/24 06:08:33;;;;;;;30.30;12.95;;;9.80;99.90;;;;;;5069967;28;20060;-85
2022/04/24 06:10:59;;;;;;;34.55;12.80;;;9.90;99.90;;;;;;5068646;28;20032;-85
2022/04/24 06:13:24;;;;;;;24.45;13.15;;;9.90;99.90;;;;;;5070290;28;20062;-84
2022/04/24 06:15:54;;;;;;;26.98;13.40;;;10.00;99.90;;;;;;5069772;28;20052;-84
2022/04/24 06:18:19;;;;;;;29.88;13.52;;;10.00;99.90;;;;;;5069694;28;20040;-84
2022/04/24 06:20:45;;;;;;;24.90;13.32;;;10.10;99.90;;;;;;5069008;28;20032;-85
2022/04/24 06:23:11;;;;;;;33.80;14.05;;;10.10;99.90;;;;;;5068782;28;20107;-85
2022/04/24 06:25:38;;;;;;;27.75;13.65;;;10.20;99.90;;;;;;5069620;28;20027;-85
2022/04/24 06:28:05;;;;;;;33.50;14.40;;;10.20;99.90;;;;;;5069435;28;20024;-86
2022/04/24 06:30:32;;;;;;;31.10;13.63;;;10.30;99.90;;;;;;5069723;28;20024;-84
2022/04/24 06:33:00;;;;;;;27.25;14.38;;;10.30;99.90;;;;;;5069062;28;20078;-84
2022/04/24 06:35:26;;;;;;;28.42;13.88;;;10.50;99.90;;;;;;5069133;28;20523;-84
2022/04/24 06:37:53;;;;;;;30.42;14.07;;;10.70;99.90;;;;;;5063719;28;20037;-84
2022/04/24 06:40:20;;;;;;;31.42;14.45;;;10.90;99.90;;;;;;5069377;28;20092;-85
2022/04/24 06:42:53;;;;;;;31.75;14.32;;;11.00;99.90;;;;;;5069363;28;20107;-84
2022/04/24 06:45:39;;;;;;;41.38;15.20;;;11.20;99.90;;;;;;5066475;28;20116;-83
2022/04/24 06:48:10;;;;;;;29.77;13.88;;;11.30;99.90;;;;;;5055867;28;20067;-83
2022/04/24 06:50:38;;;;;;;32.43;15.43;;;11.40;99.90;;;;;;5057576;28;20027;-85
2022/04/24 06:53:07;;;;;;;28.17;14.13;;;11.50;99.90;;;;;;5056032;28;20316;-84
2022/04/24 06:55:35;;;;;;;30.33;14.00;;;11.50;99.90;;;;;;5059621;28;20028;-84
2022/04/24 06:58:02;;;;;;;32.55;14.75;;;11.80;99.90;;;;;;5054866;28;20069;-85
2022/04/24 07:00:30;;;;;;;30.00;14.48;;;11.90;99.90;;;;;;5054009;28;20095;-84
2022/04/24 07:02:56;;;;;;;28.48;14.15;;;12.00;99.90;;;;;;5057766;28;20017;-84
2022/04/24 07:05:24;;;;;;;27.63;14.35;;;12.10;99.90;;;;;;5059421;28;20032;-84
2022/04/24 07:07:50;;;;;;;38.08;15.23;;;12.40;99.90;;;;;;5056476;28;20548;-84
2022/04/24 07:10:16;;;;;;;26.17;14.13;;;12.60;99.90;;;;;;5057143;28;20103;-84
2022/04/24 07:12:46;;;;;;;33.13;15.80;;;12.80;99.90;;;;;;5059169;28;20025;-84
2022/04/24 07:15:13;;;;;;;31.85;14.95;;;12.90;99.90;;;;;;5118400;22;20071;-78
2022/04/24 07:17:40;;;;;;;28.23;14.63;;;12.90;99.90;;;;;;5110587;28;20035;-79
2022/04/24 07:20:07;;;;;;;28.67;14.85;;;12.80;99.90;;;;;;5102115;28;21242;-78
2022/04/24 07:22:49;;;;;;;28.10;13.85;;;12.60;99.90;;;;;;5108342;28;20039;-78
2022/04/24 07:25:20;;;;;;;29.60;14.65;;;12.60;99.90;;;;;;5099261;28;20019;-78
2022/04/24 07:27:47;;;;;;;29.35;15.05;;;12.60;99.90;;;;;;5097936;28;20024;-78
2022/04/24 07:30:14;;;;;;;31.75;14.15;;;12.70;99.90;;;;;;5099441;28;20103;-78
2022/04/24 07:32:46;;;;;;;31.17;15.32;;;12.80;99.90;;;;;;5101541;28;20051;-78
2022/04/24 07:35:14;;;;;;;25.88;14.20;;;12.80;99.90;;;;;;5099662;28;20077;-79
2022/04/24 07:37:41;;;;;;;27.27;16.08;;;12.80;99.90;;;;;;5101200;28;20554;-78
2022/04/24 07:40:09;;;;;;;27.70;14.00;;;12.70;99.90;;;;;;5102026;28;20116;-79
2022/04/24 07:43:08;;;;;;;25.80;14.70;;;12.90;99.90;;;;;;5105345;28;20130;-79
2022/04/24 07:45:37;;;;;;;22.83;13.88;;;12.90;99.90;;;;;;5065237;28;20040;-78
2022/04/24 07:48:05;;;;;;;28.77;14.90;;;13.00;99.90;;;;;;5101876;28;20115;-79
2022/04/24 07:50:34;;;;;;;25.75;14.55;;;13.00;99.90;;;;;;5106580;28;20027;-79
2022/04/24 07:53:01;;;;;;;21.80;14.23;;;13.00;99.90;;;;;;5100651;28;20058;-79
2022/04/24 07:55:27;;;;;;;27.95;14.05;;;13.10;99.90;;;;;;5102656;28;20472;-79
2022/04/24 07:57:54;;;;;;;20.67;13.10;;;13.30;99.90;;;;;;5106563;28;20031;-79
2022/04/24 08:00:22;;;;;;;22.05;13.30;;;13.30;99.90;;;;;;5100879;28;20012;-79
2022/04/24 08:03:09;;;;;;;31.58;14.38;;;13.30;99.90;;;;;;5103219;28;20107;-79
2022/04/24 08:05:37;;;;;;;22.60;13.13;;;13.40;99.90;;;;;;5101310;28;20076;-79
2022/04/24 08:08:06;;;;;;;25.38;13.55;;;13.40;99.90;;;;;;5101550;28;20048;-79
2022/04/24 08:10:34;;;;;;;25.60;14.23;;;13.50;99.90;;;;;;5106419;28;20099;-79
2022/04/24 08:15:36;;;;;;;24.08;13.55;;;13.70;99.90;;;;;;5108165;27;20059;-83
2022/04/24 08:18:03;;;;;;;22.13;12.60;;;13.80;99.20;;;;;;5114422;27;20038;-84
2022/04/24 08:20:29;;;;;;;20.25;12.00;;;13.90;99.90;;;;;;5114183;28;20027;-83
2022/04/24 08:22:59;;;;;;;22.80;11.88;;;14.00;97.30;;;;;;5106659;27;20058;-83
2022/04/24 08:25:26;;;;;;;21.63;13.02;;;14.10;99.60;;;;;;5093623;28;20465;-82
2022/04/24 08:27:54;;;;;;;22.90;11.88;;;14.10;98.10;;;;;;5077853;28;20016;-84
2022/04/24 08:30:21;;;;;;;22.13;12.30;;;14.00;96.30;;;;;;5093348;28;20016;-80
2022/04/24 08:32:48;;;;;;;18.95;11.27;;;14.10;96.50;;;;;;5087739;28;20032;-88
2022/04/24 08:35:16;;;;;;;17.77;11.15;;;14.30;97.70;;;;;;5084777;28;20012;-86
2022/04/24 08:37:43;;;;;;;18.67;10.52;;;14.40;97.30;;;;;;5086444;28;20035;-85
2022/04/24 08:40:11;;;;;;;20.10;10.23;;;14.60;94.80;;;;;;5093264;28;20381;-86
2022/04/24 08:42:37;;;;;;;21.00;11.25;;;14.80;95.10;;;;;;5091301;28;20020;-84
2022/04/24 08:45:05;;;;;;;18.05;11.25;;;15.00;93.80;;;;;;5082603;28;20103;-86
2022/04/24 08:47:31;;;;;;;20.77;10.75;;;15.40;93.70;;;;;;5090529;28;20035;-87
2022/04/24 08:49:59;;;;;;;24.52;10.88;;;16.00;91.90;;;;;;5090022;28;20044;-88
2022/04/24 08:52:27;;;;;;;14.95;10.02;;;16.10;91.20;;;;;;5086411;28;20081;-86
2022/04/24 08:54:54;;;;;;;17.33;9.90;;;16.20;90.90;;;;;;5093139;28;20040;-86
2022/04/24 08:57:21;;;;;;;13.75;9.57;;;16.00;90.00;;;;;;5090834;28;20480;-86
2022/04/24 08:59:47;;;;;;;16.67;10.00;;;16.20;91.40;;;;;;5092867;28;20023;-83
2022/04/24 09:02:14;;;;;;;17.70;10.07;;;16.20;89.10;;;;;;5092327;28;20385;-84
2022/04/24 09:04:40;;;;;;;19.48;10.23;;;16.30;87.60;;;;;;5092647;28;20107;-84
2022/04/24 09:07:09;;;;;;;19.23;9.82;;;16.40;88.60;;;;;;5080278;28;20024;-84
2022/04/24 09:09:41;;;;;;;17.58;9.15;;;16.60;85.80;;;;;;5092065;28;20460;-84
2022/04/24 09:12:10;;;;;;;;;;;17.20;84.40;;;;;;5092797;28;20081;-85
2022/04/24 09:14:37;;;;;;;15.45;8.85;;;17.70;77.70;;;;;;5107760;22;20026;-76
2022/04/24 09:17:26;;;;;;;20.20;9.20;;;18.20;75.90;;;;;;5073805;28;20040;-78
2022/04/24 09:19:55;;;;;;;18.67;9.40;;;18.40;77.20;;;;;;5091992;28;20043;-79
2022/04/24 09:22:24;;;;;;;12.50;7.57;;;18.60;71.70;;;;;;5091225;28;20058;-78
2022/04/24 09:24:54;;;;;;;14.88;8.90;;;18.80;68.80;;;;;;5091311;28;20468;-78
2022/04/24 09:27:34;;;;;;;13.07;8.10;;;18.00;68.30;;;;;;5091783;28;20035;-78
2022/04/24 09:30:11;;;;;;;11.80;8.23;;;18.30;69.80;;;;;;5091254;28;20055;-78
2022/04/24 09:32:52;;;;;;;11.13;7.32;;;18.80;67.30;;;;;;5091862;28;20040;-78
2022/04/24 09:35:26;;;;;;;12.60;7.30;;;20.10;64.50;;;;;;5091883;28;20035;-79
2022/04/24 09:37:52;;;;;;;10.43;6.97;;;21.40;62.50;;;;;;5091867;28;20503;-79
2022/04/24 09:40:19;;;;;;;10.80;6.55;;;22.00;55.60;;;;;;5091659;28;20538;-79
2022/04/24 09:42:55;;;;;;;11.23;6.00;;;23.30;52.30;;;;;;5091685;28;20519;-79
2022/04/24 09:45:26;;;;;;;10.75;6.65;;;24.30;48.80;;;;;;5090471;28;20024;-79
2022/04/24 09:48:03;;;;;;;11.18;6.35;;;24.80;44.80;;;;;;5091721;28;20133;-79
2022/04/24 09:50:30;;;;;;;9.60;6.38;;;24.70;42.90;;;;;;5091595;28;20013;-79
2022/04/24 09:52:58;;;;;;;10.23;6.30;;;24.60;43.10;;;;;;5091054;28;20020;-79
2022/04/24 09:55:26;;;;;;;8.63;5.70;;;25.40;42.10;;;;;;5072712;28;20020;-79
2022/04/24 09:57:54;;;;;;;8.45;5.60;;;25.50;40.30;;;;;;5090400;28;20027;-79
2022/04/24 10:00:21;;;;;;;8.63;5.10;;;24.70;40.60;;;;;;5091624;28;20039;-79
2022/04/24 10:02:50;;;;;;;10.57;5.60;;;23.60;43.20;;;;;;5091379;28;20024;-78
2022/04/24 10:05:17;;;;;;;7.88;4.85;;;23.80;47.80;;;;;;5090794;28;20022;-79
2022/04/24 10:07:44;;;;;;;11.23;5.70;;;24.60;40.40;;;;;;5091191;28;20071;-79
2022/04/24 10:10:11;;;;;;;11.85;5.93;;;24.10;41.50;;;;;;5091144;28;20016;-79
2022/04/24 10:12:37;;;;;;;9.55;5.47;;;24.60;43.90;;;;;;5072740;28;20020;-79
2022/04/24 10:15:12;;;;;;;9.45;5.43;;;25.70;42.30;;;;;;5101788;23;20039;-84
2022/04/24 10:18:02;;;;;;;9.15;5.57;;;25.70;40.40;;;;;;5083037;28;20081;-84
2022/04/24 10:20:45;;;;;;;7.95;5.22;;;25.90;36.60;;;;;;5083659;28;20016;-85
2022/04/24 10:23:12;;;;;;;8.30;5.50;;;26.10;37.80;;;;;;5084921;28;20503;-85
2022/04/24 10:25:42;;;;;;;6.97;5.05;;;25.70;39.80;;;;;;5090801;28;20020;-85
2022/04/24 10:28:19;;;;;;;8.27;4.55;;;26.10;37.10;;;;;;5090833;28;20059;-84
2022/04/24 10:31:00;;;;;;;10.80;4.88;;;27.60;40.80;;;;;;5090729;28;20032;-86
2022/04/24 10:33:28;;;;;;;8.32;5.00;;;27.70;33.90;;;;;;5089440;28;20047;-84
2022/04/24 10:36:02;;;;;;;11.68;5.10;;;26.70;35.40;;;;;;5091061;28;20024;-86
2022/04/24 10:38:30;;;;;;;8.75;4.45;;;27.30;35.90;;;;;;5089565;28;20023;-84
2022/04/24 10:41:13;;;;;;;6.97;4.30;;;28.10;33.90;;;;;;5089609;28;20027;-85
2022/04/24 10:43:48;;;;;;;5.75;4.03;;;28.60;33.10;;;;;;5090810;28;20027;-84
2022/04/24 10:46:19;;;;;;;10.23;4.63;;;28.50;34.50;;;;;;5090808;28;20025;-85
2022/04/24 10:48:48;;;;;;;6.93;4.40;;;28.60;35.10;;;;;;5090963;28;20032;-85
2022/04/24 10:51:32;;;;;;;5.13;3.58;;;28.50;32.90;;;;;;5084002;28;20059;-85
2022/04/24 10:54:08;;;;;;;10.05;4.63;;;29.10;32.40;;;;;;5090939;28;20020;-85
2022/04/24 10:56:35;;;;;;;9.45;4.25;;;27.50;31.40;;;;;;5090734;28;20685;-84
2022/04/24 10:59:08;;;;;;;5.70;4.22;;;28.30;32.90;;;;;;5090319;28;20035;-84
2022/04/24 11:01:42;;;;;;;5.53;3.60;;;28.80;33.10;;;;;;5090634;28;20027;-85
2022/04/24 11:04:10;;;;;;;6.63;4.07;;;29.40;30.90;;;;;;5090335;28;20019;-84
2022/04/24 11:06:36;;;;;;;8.70;4.38;;;27.30;32.80;;;;;;5090218;28;20036;-84
2022/04/24 11:09:07;;;;;;;8.80;3.97;;;27.70;31.00;;;;;;5091785;28;20021;-85
2022/04/24 11:11:33;;;;;;;6.37;4.00;;;27.90;32.10;;;;;;5094650;28;20024;-85
2022/04/24 11:14:02;;;;;;;4.18;3.22;;;28.20;29.60;;;;;;5110565;22;20308;-78
2022/04/24 11:16:28;;;;;;;5.55;3.38;;;29.40;32.70;;;;;;5093268;28;20085;-77
2022/04/24 11:18:54;;;;;;;4.35;3.67;;;29.20;32.00;;;;;;5094478;28;20024;-78
2022/04/24 11:21:21;;;;;;;7.38;4.28;;;29.20;29.10;;;;;;5094771;28;20016;-78
2022/04/24 11:23:47;;;;;;;5.15;3.65;;;28.70;28.60;;;;;;5093981;28;20041;-78
2022/04/24 11:26:14;;;;;;;4.15;3.20;;;29.70;28.60;;;;;;5094002;28;20039;-79
2022/04/24 11:28:45;;;;;;;6.05;4.00;;;30.10;28.60;;;;;;5093923;28;20016;-79
2022/04/24 11:31:19;;;;;;;5.55;3.63;;;30.20;28.50;;;;;;5087426;28;20023;-78
2022/04/24 11:33:59;;;;;;;5.88;4.15;;;29.40;27.70;;;;;;5094102;28;20028;-78
2022/04/24 11:36:33;;;;;;;8.05;4.07;;;27.90;28.70;;;;;;5094388;28;20475;-78
2022/04/24 11:39:04;;;;;;;5.10;4.05;;;26.20;30.30;;;;;;5093444;28;20022;-78
2022/04/24 11:41:31;;;;;;;7.35;3.88;;;26.10;31.60;;;;;;5093838;28;20043;-81
2022/04/24 11:52:24;;;;;;;10.55;4.18;;;28.10;28.00;;;;;;5093912;28;20510;-78
2022/04/24 11:54:51;;;;;;;4.57;4.00;;;27.90;30.70;;;;;;5093850;28;20020;-78
2022/04/24 11:57:18;;;;;;;8.48;4.38;;;27.90;28.70;;;;;;5093793;28;20012;-78
2022/04/24 11:59:54;;;;;;;7.45;4.20;;;26.70;30.70;;;;;;5092984;28;20068;-78
2022/04/24 12:02:27;;;;;;;8.43;4.25;;;26.10;29.90;;;;;;5093504;28;20016;-78
2022/04/24 12:04:53;;;;;;;4.13;3.72;;;27.30;32.30;;;;;;5087378;28;20144;-78
2022/04/24 12:07:20;;;;;;;7.25;3.95;;;26.30;30.10;;;;;;5093302;28;20027;-78
2022/04/24 12:10:01;;;;;;;6.13;3.95;;;25.80;33.00;;;;;;5093208;28;20043;-78
2022/04/24 12:12:27;;;;;;;7.00;3.60;;;26.10;29.90;;;;;;5093242;28;20373;-78
2022/04/24 12:14:54;;;;;;;4.45;3.75;;;28.40;32.80;;;;;;5116897;22;20449;-85
2022/04/24 12:17:20;;;;;;;5.43;3.83;;;30.30;29.30;;;;;;5091343;28;20024;-85
2022/04/24 12:19:54;;;;;;;8.35;3.97;;;29.50;28.50;;;;;;5093157;28;20044;-85
2022/04/24 12:22:31;;;;;;;3.88;2.90;;;30.50;27.40;;;;;;5091173;28;20096;-86
2022/04/24 12:25:11;;;;;;;5.22;3.88;;;31.50;27.80;;;;;;5072870;28;20469;-85
2022/04/24 12:27:37;;;;;;;7.15;3.50;;;31.60;26.60;;;;;;5065751;28;20036;-85
2022/04/24 12:30:06;;;;;;;4.38;3.55;;;30.90;26.80;;;;;;5071386;28;20401;-85
2022/04/24 12:32:34;;;;;;;5.68;3.90;;;29.50;26.20;;;;;;5071689;28;20116;-85
2022/04/24 12:35:00;;;;;;;3.65;3.35;;;28.60;28.50;;;;;;5071433;28;20369;-86
2022/04/24 12:37:30;;;;;;;6.28;3.38;;;30.00;27.20;;;;;;5072707;28;20032;-85
2022/04/24 12:39:57;;;;;;;3.77;3.20;;;29.20;27.30;;;;;;5072916;28;20380;-85
2022/04/24 12:42:23;;;;;;;7.47;3.10;;;29.30;27.00;;;;;;5072878;28;20258;-85
2022/04/24 12:44:50;;;;;;;6.55;3.55;;;30.50;26.80;;;;;;5072599;28;20367;-85
2022/04/24 12:47:16;;;;;;;4.75;3.40;;;31.30;26.30;;;;;;5072483;28;20056;-86
2022/04/24 12:49:44;;;;;;;5.78;3.53;;;31.20;25.30;;;;;;5072575;28;20125;-85